sensor_id;sensor_type;location;lat;lon;timestamp;P1;durP1;ratioP1;P2;durP2;ratioP2
72087;SDS011;59961;50.232;8.616;2022-12-07T00:00:26;14.52;;;6.03;;
72087;SDS011;59961;50.232;8.616;2022-12-07T00:02:51;12.55;;;5.60;;
72087;SDS011;59961;50.232;8.616;2022-12-07T00:05:16;17.47;;;7.47;;
72087;SDS011;59961;50.232;8.616;2022-12-07T00:07:42;15.05;;;6.43;;
72087;SDS011;59961;50.232;8.616;2022-12-07T00:10:07;17.07;;;7.07;;
72087;SDS011;59961;50.232;8.616;2022-12-07T00:12:32;14.17;;;6.17;;
72087;SDS011;59961;50.232;8.616;2022-12-07T00:14:57;14.38;;;5.68;;
72087;SDS011;59961;50.232;8.616;2022-12-07T00:17:22;16.58;;;6.63;;
72087;SDS011;59961;50.232;8.616;2022-12-07T00:19:47;13.35;;;5.82;;
72087;SDS011;59961;50.232;8.616;2022-12-07T00:22:12;16.00;;;6.73;;
72087;SDS011;59961;50.232;8.616;2022-12-07T00:24:38;13.35;;;5.78;;
72087;SDS011;59961;50.232;8.616;2022-12-07T00:27:03;15.25;;;5.97;;
72087;SDS011;59961;50.232;8.616;2022-12-07T00:29:28;17.10;;;7.22;;
72087;SDS011;59961;50.232;8.616;2022-12-07T00:31:53;15.17;;;7.10;;
72087;SDS011;59961;50.232;8.616;2022-12-07T00:34:19;15.17;;;6.93;;
72087;SDS011;59961;50.232;8.616;2022-12-07T00:36:45;19.25;;;7.75;;
72087;SDS011;59961;50.232;8.616;2022-12-07T00:39:10;17.15;;;7.25;;
72087;SDS011;59961;50.232;8.616;2022-12-07T00:41:35;15.87;;;6.20;;
72087;SDS011;59961;50.232;8.616;2022-12-07T00:44:00;16.05;;;7.15;;
72087;SDS011;59961;50.232;8.616;2022-12-07T00:46:26;15.65;;;6.78;;
72087;SDS011;59961;50.232;8.616;2022-12-07T00:48:51;16.70;;;7.03;;
72087;SDS011;59961;50.232;8.616;2022-12-07T00:51:17;14.27;;;6.77;;
72087;SDS011;59961;50.232;8.616;2022-12-07T00:53:43;16.85;;;7.72;;
72087;SDS011;59961;50.232;8.616;2022-12-07T00:56:09;14.17;;;6.43;;
72087;SDS011;59961;50.232;8.616;2022-12-07T00:58:36;16.92;;;7.47;;
72087;SDS011;59961;50.232;8.616;2022-12-07T01:01:01;17.10;;;6.90;;
72087;SDS011;59961;50.232;8.616;2022-12-07T01:03:27;16.90;;;6.63;;
72087;SDS011;59961;50.232;8.616;2022-12-07T01:05:53;15.33;;;7.10;;
72087;SDS011;59961;50.232;8.616;2022-12-07T01:08:19;18.55;;;7.07;;
72087;SDS011;59961;50.232;8.616;2022-12-07T01:10:44;16.47;;;6.57;;
72087;SDS011;59961;50.232;8.616;2022-12-07T01:13:09;16.87;;;7.13;;
72087;SDS011;59961;50.232;8.616;2022-12-07T01:15:38;16.42;;;5.88;;
72087;SDS011;59961;50.232;8.616;2022-12-07T01:18:03;15.65;;;6.65;;
72087;SDS011;59961;50.232;8.616;2022-12-07T01:20:28;15.87;;;6.80;;
72087;SDS011;59961;50.232;8.616;2022-12-07T01:22:53;15.13;;;7.18;;
72087;SDS011;59961;50.232;8.616;2022-12-07T01:25:18;13.73;;;5.88;;
72087;SDS011;59961;50.232;8.616;2022-12-07T01:27:44;15.95;;;6.50;;
72087;SDS011;59961;50.232;8.616;2022-12-07T01:30:09;16.17;;;6.40;;
72087;SDS011;59961;50.232;8.616;2022-12-07T01:32:35;17.07;;;6.83;;
72087;SDS011;59961;50.232;8.616;2022-12-07T01:35:00;15.57;;;5.90;;
72087;SDS011;59961;50.232;8.616;2022-12-07T01:37:25;16.45;;;7.00;;
72087;SDS011;59961;50.232;8.616;2022-12-07T01:39:50;13.83;;;6.23;;
72087;SDS011;59961;50.232;8.616;2022-12-07T01:42:16;16.57;;;6.97;;
72087;SDS011;59961;50.232;8.616;2022-12-07T01:45:14;14.33;;;7.03;;
72087;SDS011;59961;50.232;8.616;2022-12-07T01:47:32;16.00;;;6.30;;
72087;SDS011;59961;50.232;8.616;2022-12-07T01:49:57;15.93;;;6.37;;
72087;SDS011;59961;50.232;8.616;2022-12-07T01:52:23;14.90;;;6.27;;
72087;SDS011;59961;50.232;8.616;2022-12-07T01:54:51;15.27;;;6.55;;
72087;SDS011;59961;50.232;8.616;2022-12-07T01:57:17;14.27;;;5.87;;
72087;SDS011;59961;50.232;8.616;2022-12-07T01:59:43;13.20;;;6.45;;
72087;SDS011;59961;50.232;8.616;2022-12-07T02:02:11;14.27;;;6.17;;
72087;SDS011;59961;50.232;8.616;2022-12-07T02:04:39;18.40;;;5.07;;
72087;SDS011;59961;50.232;8.616;2022-12-07T02:07:04;16.07;;;5.60;;
72087;SDS011;59961;50.232;8.616;2022-12-07T02:09:30;15.15;;;5.78;;
72087;SDS011;59961;50.232;8.616;2022-12-07T02:11:55;13.23;;;5.83;;
72087;SDS011;59961;50.232;8.616;2022-12-07T02:14:20;14.43;;;5.85;;
72087;SDS011;59961;50.232;8.616;2022-12-07T02:16:47;13.10;;;5.47;;
72087;SDS011;59961;50.232;8.616;2022-12-07T02:22:01;14.07;;;5.65;;
72087;SDS011;59961;50.232;8.616;2022-12-07T02:24:45;12.80;;;5.27;;
72087;SDS011;59961;50.232;8.616;2022-12-07T02:29:58;16.45;;;6.20;;
72087;SDS011;59961;50.232;8.616;2022-12-07T02:32:26;13.52;;;5.63;;
72087;SDS011;59961;50.232;8.616;2022-12-07T02:35:04;11.32;;;4.82;;
72087;SDS011;59961;50.232;8.616;2022-12-07T02:37:44;14.30;;;5.43;;
72087;SDS011;59961;50.232;8.616;2022-12-07T02:40:20;10.88;;;4.57;;
72087;SDS011;59961;50.232;8.616;2022-12-07T02:42:47;12.25;;;4.15;;
72087;SDS011;59961;50.232;8.616;2022-12-07T02:45:15;10.90;;;4.50;;
72087;SDS011;59961;50.232;8.616;2022-12-07T02:47:41;10.95;;;4.05;;
72087;SDS011;59961;50.232;8.616;2022-12-07T02:50:08;12.30;;;4.33;;
72087;SDS011;59961;50.232;8.616;2022-12-07T02:52:33;11.95;;;4.60;;
72087;SDS011;59961;50.232;8.616;2022-12-07T02:54:58;8.37;;;3.40;;
72087;SDS011;59961;50.232;8.616;2022-12-07T03:00:08;10.57;;;3.20;;
72087;SDS011;59961;50.232;8.616;2022-12-07T03:05:31;8.93;;;3.50;;
72087;SDS011;59961;50.232;8.616;2022-12-07T03:08:02;8.45;;;3.22;;
72087;SDS011;59961;50.232;8.616;2022-12-07T03:16:16;7.17;;;2.63;;
72087;SDS011;59961;50.232;8.616;2022-12-07T03:18:55;7.32;;;2.88;;
72087;SDS011;59961;50.232;8.616;2022-12-07T03:21:31;7.53;;;2.97;;
72087;SDS011;59961;50.232;8.616;2022-12-07T03:23:58;8.27;;;3.22;;
72087;SDS011;59961;50.232;8.616;2022-12-07T03:26:24;9.00;;;3.60;;
72087;SDS011;59961;50.232;8.616;2022-12-07T03:28:52;7.03;;;3.07;;
72087;SDS011;59961;50.232;8.616;2022-12-07T03:31:22;7.38;;;2.83;;
72087;SDS011;59961;50.232;8.616;2022-12-07T03:41:36;9.10;;;3.33;;
72087;SDS011;59961;50.232;8.616;2022-12-07T03:44:02;8.15;;;3.50;;
72087;SDS011;59961;50.232;8.616;2022-12-07T03:46:39;10.37;;;3.70;;
72087;SDS011;59961;50.232;8.616;2022-12-07T03:49:18;10.48;;;3.88;;
72087;SDS011;59961;50.232;8.616;2022-12-07T03:51:57;10.02;;;4.03;;
72087;SDS011;59961;50.232;8.616;2022-12-07T03:54:30;9.15;;;3.30;;
72087;SDS011;59961;50.232;8.616;2022-12-07T03:56:56;10.50;;;3.90;;
72087;SDS011;59961;50.232;8.616;2022-12-07T03:59:22;9.10;;;3.37;;
72087;SDS011;59961;50.232;8.616;2022-12-07T04:01:56;9.65;;;3.75;;
72087;SDS011;59961;50.232;8.616;2022-12-07T04:04:22;9.77;;;3.83;;
72087;SDS011;59961;50.232;8.616;2022-12-07T04:06:47;9.77;;;4.05;;
72087;SDS011;59961;50.232;8.616;2022-12-07T04:09:13;10.47;;;4.30;;
72087;SDS011;59961;50.232;8.616;2022-12-07T04:11:39;10.20;;;4.60;;
72087;SDS011;59961;50.232;8.616;2022-12-07T04:14:04;9.07;;;3.70;;
72087;SDS011;59961;50.232;8.616;2022-12-07T04:16:55;9.90;;;4.35;;
72087;SDS011;59961;50.232;8.616;2022-12-07T04:19:27;10.80;;;3.85;;
72087;SDS011;59961;50.232;8.616;2022-12-07T04:21:52;9.63;;;3.83;;
72087;SDS011;59961;50.232;8.616;2022-12-07T04:24:18;9.97;;;3.77;;
72087;SDS011;59961;50.232;8.616;2022-12-07T04:26:43;9.43;;;3.77;;
72087;SDS011;59961;50.232;8.616;2022-12-07T04:29:09;9.37;;;4.33;;
72087;SDS011;59961;50.232;8.616;2022-12-07T04:31:35;9.10;;;3.78;;
72087;SDS011;59961;50.232;8.616;2022-12-07T04:34:00;10.60;;;4.17;;
72087;SDS011;59961;50.232;8.616;2022-12-07T04:36:25;9.23;;;3.90;;
72087;SDS011;59961;50.232;8.616;2022-12-07T04:38:52;11.03;;;4.53;;
72087;SDS011;59961;50.232;8.616;2022-12-07T04:41:18;8.20;;;3.25;;
72087;SDS011;59961;50.232;8.616;2022-12-07T04:43:43;9.93;;;4.27;;
72087;SDS011;59961;50.232;8.616;2022-12-07T04:46:08;10.23;;;4.10;;
72087;SDS011;59961;50.232;8.616;2022-12-07T04:48:33;9.13;;;3.67;;
72087;SDS011;59961;50.232;8.616;2022-12-07T04:50:58;12.37;;;4.93;;
72087;SDS011;59961;50.232;8.616;2022-12-07T04:53:23;8.93;;;4.00;;
72087;SDS011;59961;50.232;8.616;2022-12-07T04:55:49;8.53;;;3.47;;
72087;SDS011;59961;50.232;8.616;2022-12-07T04:58:14;8.43;;;3.70;;
72087;SDS011;59961;50.232;8.616;2022-12-07T05:00:39;9.67;;;4.53;;
72087;SDS011;59961;50.232;8.616;2022-12-07T05:03:04;10.60;;;4.10;;
72087;SDS011;59961;50.232;8.616;2022-12-07T05:05:29;12.87;;;4.60;;
72087;SDS011;59961;50.232;8.616;2022-12-07T05:07:55;10.00;;;4.60;;
72087;SDS011;59961;50.232;8.616;2022-12-07T05:10:20;9.95;;;4.10;;
72087;SDS011;59961;50.232;8.616;2022-12-07T05:12:45;13.13;;;4.60;;
72087;SDS011;59961;50.232;8.616;2022-12-07T05:15:10;11.10;;;5.20;;
72087;SDS011;59961;50.232;8.616;2022-12-07T05:17:36;8.90;;;4.27;;
72087;SDS011;59961;50.232;8.616;2022-12-07T05:20:01;9.50;;;4.47;;
72087;SDS011;59961;50.232;8.616;2022-12-07T05:22:26;9.43;;;4.70;;
72087;SDS011;59961;50.232;8.616;2022-12-07T05:24:53;8.70;;;3.83;;
72087;SDS011;59961;50.232;8.616;2022-12-07T05:27:18;10.35;;;4.38;;
72087;SDS011;59961;50.232;8.616;2022-12-07T05:29:43;9.30;;;4.03;;
72087;SDS011;59961;50.232;8.616;2022-12-07T05:32:08;9.57;;;4.25;;
72087;SDS011;59961;50.232;8.616;2022-12-07T05:34:34;9.15;;;4.22;;
72087;SDS011;59961;50.232;8.616;2022-12-07T05:36:59;10.57;;;4.53;;
72087;SDS011;59961;50.232;8.616;2022-12-07T05:39:24;7.70;;;3.77;;
72087;SDS011;59961;50.232;8.616;2022-12-07T05:41:49;9.43;;;4.33;;
72087;SDS011;59961;50.232;8.616;2022-12-07T05:44:33;11.65;;;4.50;;
72087;SDS011;59961;50.232;8.616;2022-12-07T05:46:58;10.38;;;4.55;;
72087;SDS011;59961;50.232;8.616;2022-12-07T05:49:23;9.48;;;4.35;;
72087;SDS011;59961;50.232;8.616;2022-12-07T05:51:48;10.30;;;4.00;;
72087;SDS011;59961;50.232;8.616;2022-12-07T05:54:14;11.40;;;4.05;;
72087;SDS011;59961;50.232;8.616;2022-12-07T05:56:39;10.18;;;4.70;;
72087;SDS011;59961;50.232;8.616;2022-12-07T05:59:04;10.52;;;4.55;;
72087;SDS011;59961;50.232;8.616;2022-12-07T06:01:57;9.80;;;4.75;;
72087;SDS011;59961;50.232;8.616;2022-12-07T06:04:24;10.70;;;4.13;;
72087;SDS011;59961;50.232;8.616;2022-12-07T06:06:49;9.75;;;4.40;;
72087;SDS011;59961;50.232;8.616;2022-12-07T06:09:15;10.73;;;4.20;;
72087;SDS011;59961;50.232;8.616;2022-12-07T06:11:40;11.70;;;4.77;;
72087;SDS011;59961;50.232;8.616;2022-12-07T06:14:24;9.45;;;4.47;;
72087;SDS011;59961;50.232;8.616;2022-12-07T06:16:50;12.10;;;5.37;;
72087;SDS011;59961;50.232;8.616;2022-12-07T06:19:15;15.67;;;4.77;;
72087;SDS011;59961;50.232;8.616;2022-12-07T06:21:40;10.40;;;4.60;;
72087;SDS011;59961;50.232;8.616;2022-12-07T06:24:05;13.00;;;4.87;;
72087;SDS011;59961;50.232;8.616;2022-12-07T06:26:31;11.57;;;4.83;;
72087;SDS011;59961;50.232;8.616;2022-12-07T06:28:56;12.63;;;5.43;;
72087;SDS011;59961;50.232;8.616;2022-12-07T06:31:21;12.57;;;5.90;;
72087;SDS011;59961;50.232;8.616;2022-12-07T06:33:46;11.97;;;5.10;;
72087;SDS011;59961;50.232;8.616;2022-12-07T06:36:12;10.40;;;4.83;;
72087;SDS011;59961;50.232;8.616;2022-12-07T06:38:37;10.77;;;4.77;;
72087;SDS011;59961;50.232;8.616;2022-12-07T06:41:02;10.60;;;4.67;;
72087;SDS011;59961;50.232;8.616;2022-12-07T06:43:27;11.00;;;4.53;;
72087;SDS011;59961;50.232;8.616;2022-12-07T06:45:52;11.53;;;4.40;;
72087;SDS011;59961;50.232;8.616;2022-12-07T06:48:18;10.10;;;4.30;;
72087;SDS011;59961;50.232;8.616;2022-12-07T06:50:46;13.85;;;5.40;;
72087;SDS011;59961;50.232;8.616;2022-12-07T06:53:11;12.93;;;5.27;;
72087;SDS011;59961;50.232;8.616;2022-12-07T06:55:36;12.02;;;5.38;;
72087;SDS011;59961;50.232;8.616;2022-12-07T06:58:01;12.93;;;5.40;;
72087;SDS011;59961;50.232;8.616;2022-12-07T07:00:27;14.00;;;5.57;;
72087;SDS011;59961;50.232;8.616;2022-12-07T07:02:52;11.27;;;5.40;;
72087;SDS011;59961;50.232;8.616;2022-12-07T07:05:18;11.40;;;5.05;;
72087;SDS011;59961;50.232;8.616;2022-12-07T07:07:43;10.27;;;4.57;;
72087;SDS011;59961;50.232;8.616;2022-12-07T07:10:08;10.20;;;4.53;;
72087;SDS011;59961;50.232;8.616;2022-12-07T07:12:33;12.40;;;5.00;;
72087;SDS011;59961;50.232;8.616;2022-12-07T07:14:58;11.80;;;4.88;;
72087;SDS011;59961;50.232;8.616;2022-12-07T07:17:24;10.23;;;4.27;;
72087;SDS011;59961;50.232;8.616;2022-12-07T07:19:49;11.50;;;4.22;;
72087;SDS011;59961;50.232;8.616;2022-12-07T07:22:14;10.45;;;4.80;;
72087;SDS011;59961;50.232;8.616;2022-12-07T07:24:39;11.47;;;4.93;;
72087;SDS011;59961;50.232;8.616;2022-12-07T07:27:04;12.93;;;4.00;;
72087;SDS011;59961;50.232;8.616;2022-12-07T07:29:29;10.27;;;4.82;;
72087;SDS011;59961;50.232;8.616;2022-12-07T07:31:54;10.73;;;3.97;;
72087;SDS011;59961;50.232;8.616;2022-12-07T07:34:20;7.90;;;3.90;;
72087;SDS011;59961;50.232;8.616;2022-12-07T07:36:45;10.33;;;4.43;;
72087;SDS011;59961;50.232;8.616;2022-12-07T07:39:10;9.23;;;4.20;;
72087;SDS011;59961;50.232;8.616;2022-12-07T07:41:37;11.27;;;4.70;;
72087;SDS011;59961;50.232;8.616;2022-12-07T07:44:02;12.13;;;5.32;;
72087;SDS011;59961;50.232;8.616;2022-12-07T07:46:28;11.67;;;4.60;;
72087;SDS011;59961;50.232;8.616;2022-12-07T07:48:53;15.27;;;4.85;;
72087;SDS011;59961;50.232;8.616;2022-12-07T07:51:18;8.73;;;4.18;;
72087;SDS011;59961;50.232;8.616;2022-12-07T07:53:43;9.30;;;4.53;;
72087;SDS011;59961;50.232;8.616;2022-12-07T07:56:08;10.10;;;3.55;;
72087;SDS011;59961;50.232;8.616;2022-12-07T07:58:33;9.90;;;4.13;;
72087;SDS011;59961;50.232;8.616;2022-12-07T08:01:05;8.93;;;3.93;;
72087;SDS011;59961;50.232;8.616;2022-12-07T08:03:31;11.00;;;3.95;;
72087;SDS011;59961;50.232;8.616;2022-12-07T08:05:56;9.57;;;3.93;;
72087;SDS011;59961;50.232;8.616;2022-12-07T08:08:21;9.17;;;3.57;;
72087;SDS011;59961;50.232;8.616;2022-12-07T08:10:46;8.98;;;3.80;;
72087;SDS011;59961;50.232;8.616;2022-12-07T08:13:11;10.15;;;4.18;;
72087;SDS011;59961;50.232;8.616;2022-12-07T08:15:38;9.45;;;3.72;;
72087;SDS011;59961;50.232;8.616;2022-12-07T08:18:04;7.70;;;3.43;;
72087;SDS011;59961;50.232;8.616;2022-12-07T08:20:30;8.53;;;4.23;;
72087;SDS011;59961;50.232;8.616;2022-12-07T08:22:55;10.15;;;3.80;;
72087;SDS011;59961;50.232;8.616;2022-12-07T08:25:20;9.63;;;4.05;;
72087;SDS011;59961;50.232;8.616;2022-12-07T08:27:47;11.35;;;4.03;;
72087;SDS011;59961;50.232;8.616;2022-12-07T08:30:12;7.67;;;3.20;;
72087;SDS011;59961;50.232;8.616;2022-12-07T08:32:37;9.37;;;3.70;;
72087;SDS011;59961;50.232;8.616;2022-12-07T08:35:02;7.80;;;3.47;;
72087;SDS011;59961;50.232;8.616;2022-12-07T08:37:27;7.73;;;3.20;;
72087;SDS011;59961;50.232;8.616;2022-12-07T08:39:53;10.30;;;3.15;;
72087;SDS011;59961;50.232;8.616;2022-12-07T08:42:19;7.73;;;3.07;;
72087;SDS011;59961;50.232;8.616;2022-12-07T08:44:45;9.18;;;3.13;;
72087;SDS011;59961;50.232;8.616;2022-12-07T08:47:10;8.57;;;3.75;;
72087;SDS011;59961;50.232;8.616;2022-12-07T08:49:38;7.28;;;3.03;;
72087;SDS011;59961;50.232;8.616;2022-12-07T08:52:04;7.35;;;3.00;;
72087;SDS011;59961;50.232;8.616;2022-12-07T08:54:29;6.60;;;3.03;;
72087;SDS011;59961;50.232;8.616;2022-12-07T08:56:55;7.40;;;3.17;;
72087;SDS011;59961;50.232;8.616;2022-12-07T08:59:21;6.28;;;2.65;;
72087;SDS011;59961;50.232;8.616;2022-12-07T09:01:46;6.93;;;2.80;;
72087;SDS011;59961;50.232;8.616;2022-12-07T09:04:11;6.40;;;2.53;;
72087;SDS011;59961;50.232;8.616;2022-12-07T09:06:36;5.63;;;2.13;;
72087;SDS011;59961;50.232;8.616;2022-12-07T09:09:02;6.23;;;2.03;;
72087;SDS011;59961;50.232;8.616;2022-12-07T09:11:27;7.60;;;2.70;;
72087;SDS011;59961;50.232;8.616;2022-12-07T09:13:53;6.67;;;2.63;;
72087;SDS011;59961;50.232;8.616;2022-12-07T09:16:18;6.67;;;2.53;;
72087;SDS011;59961;50.232;8.616;2022-12-07T09:18:43;8.70;;;2.47;;
72087;SDS011;59961;50.232;8.616;2022-12-07T09:21:08;8.35;;;2.47;;
72087;SDS011;59961;50.232;8.616;2022-12-07T09:23:33;6.57;;;2.27;;
72087;SDS011;59961;50.232;8.616;2022-12-07T09:26:01;6.03;;;1.97;;
72087;SDS011;59961;50.232;8.616;2022-12-07T09:28:26;4.75;;;2.30;;
72087;SDS011;59961;50.232;8.616;2022-12-07T09:30:51;5.30;;;1.93;;
72087;SDS011;59961;50.232;8.616;2022-12-07T09:33:16;5.10;;;2.23;;
72087;SDS011;59961;50.232;8.616;2022-12-07T09:35:45;4.90;;;2.10;;
72087;SDS011;59961;50.232;8.616;2022-12-07T09:38:10;4.28;;;1.85;;
72087;SDS011;59961;50.232;8.616;2022-12-07T09:40:36;6.30;;;1.90;;
72087;SDS011;59961;50.232;8.616;2022-12-07T09:43:01;5.57;;;2.20;;
72087;SDS011;59961;50.232;8.616;2022-12-07T09:45:31;5.27;;;2.00;;
72087;SDS011;59961;50.232;8.616;2022-12-07T09:47:57;5.53;;;1.67;;
72087;SDS011;59961;50.232;8.616;2022-12-07T09:50:23;4.70;;;1.90;;
72087;SDS011;59961;50.232;8.616;2022-12-07T09:52:49;4.10;;;2.20;;
72087;SDS011;59961;50.232;8.616;2022-12-07T09:55:16;4.28;;;2.20;;
72087;SDS011;59961;50.232;8.616;2022-12-07T09:57:43;4.53;;;1.70;;
72087;SDS011;59961;50.232;8.616;2022-12-07T10:00:12;4.87;;;1.97;;
72087;SDS011;59961;50.232;8.616;2022-12-07T10:02:40;6.60;;;2.10;;
72087;SDS011;59961;50.232;8.616;2022-12-07T10:05:12;4.63;;;1.75;;
72087;SDS011;59961;50.232;8.616;2022-12-07T10:07:38;8.75;;;2.40;;
72087;SDS011;59961;50.232;8.616;2022-12-07T10:10:04;7.20;;;2.90;;
72087;SDS011;59961;50.232;8.616;2022-12-07T10:12:31;6.20;;;2.40;;
72087;SDS011;59961;50.232;8.616;2022-12-07T10:15:16;4.35;;;2.13;;
72087;SDS011;59961;50.232;8.616;2022-12-07T10:17:47;4.80;;;2.07;;
72087;SDS011;59961;50.232;8.616;2022-12-07T10:20:23;6.45;;;2.50;;
72087;SDS011;59961;50.232;8.616;2022-12-07T10:23:22;5.13;;;2.20;;
72087;SDS011;59961;50.232;8.616;2022-12-07T10:25:40;7.57;;;2.33;;
72087;SDS011;59961;50.232;8.616;2022-12-07T10:30:45;4.25;;;1.95;;
72087;SDS011;59961;50.232;8.616;2022-12-07T10:35:54;5.82;;;1.98;;
72087;SDS011;59961;50.232;8.616;2022-12-07T10:38:20;5.15;;;1.90;;
72087;SDS011;59961;50.232;8.616;2022-12-07T10:40:45;6.10;;;1.83;;
72087;SDS011;59961;50.232;8.616;2022-12-07T11:11:35;3.20;;;1.50;;
72087;SDS011;59961;50.232;8.616;2022-12-07T11:14:06;5.30;;;1.80;;
72087;SDS011;59961;50.232;8.616;2022-12-07T11:19:30;5.82;;;1.52;;
72087;SDS011;59961;50.232;8.616;2022-12-07T11:22:17;7.72;;;2.00;;
72087;SDS011;59961;50.232;8.616;2022-12-07T11:40:53;3.15;;;1.40;;
72087;SDS011;59961;50.232;8.616;2022-12-07T11:43:31;5.03;;;1.70;;
72087;SDS011;59961;50.232;8.616;2022-12-07T11:48:31;4.53;;;1.70;;
72087;SDS011;59961;50.232;8.616;2022-12-07T11:50:57;7.07;;;1.90;;
72087;SDS011;59961;50.232;8.616;2022-12-07T11:53:26;5.20;;;1.70;;
72087;SDS011;59961;50.232;8.616;2022-12-07T12:00:47;6.00;;;1.50;;
72087;SDS011;59961;50.232;8.616;2022-12-07T12:03:14;6.07;;;1.83;;
72087;SDS011;59961;50.232;8.616;2022-12-07T12:05:40;4.65;;;1.50;;
72087;SDS011;59961;50.232;8.616;2022-12-07T12:10:35;4.50;;;2.53;;
72087;SDS011;59961;50.232;8.616;2022-12-07T12:16:10;4.78;;;2.10;;
72087;SDS011;59961;50.232;8.616;2022-12-07T12:21:04;4.53;;;1.92;;
72087;SDS011;59961;50.232;8.616;2022-12-07T12:25:57;5.17;;;1.93;;
72087;SDS011;59961;50.232;8.616;2022-12-07T12:28:35;4.95;;;1.52;;
72087;SDS011;59961;50.232;8.616;2022-12-07T12:31:07;5.20;;;1.55;;
72087;SDS011;59961;50.232;8.616;2022-12-07T12:33:34;3.90;;;1.50;;
72087;SDS011;59961;50.232;8.616;2022-12-07T12:46:48;4.15;;;1.35;;
72087;SDS011;59961;50.232;8.616;2022-12-07T12:52:01;6.77;;;1.57;;
72087;SDS011;59961;50.232;8.616;2022-12-07T12:54:57;5.43;;;1.60;;
72087;SDS011;59961;50.232;8.616;2022-12-07T12:57:27;5.85;;;1.75;;
72087;SDS011;59961;50.232;8.616;2022-12-07T13:02:27;4.47;;;2.00;;
72087;SDS011;59961;50.232;8.616;2022-12-07T13:05:03;4.23;;;1.80;;
72087;SDS011;59961;50.232;8.616;2022-12-07T13:15:39;5.90;;;2.47;;
72087;SDS011;59961;50.232;8.616;2022-12-07T13:18:22;8.27;;;2.50;;
72087;SDS011;59961;50.232;8.616;2022-12-07T13:20:48;8.30;;;2.60;;
72087;SDS011;59961;50.232;8.616;2022-12-07T13:23:16;6.57;;;2.65;;
72087;SDS011;59961;50.232;8.616;2022-12-07T13:25:54;6.00;;;2.53;;
72087;SDS011;59961;50.232;8.616;2022-12-07T13:28:21;6.43;;;2.20;;
72087;SDS011;59961;50.232;8.616;2022-12-07T13:30:50;5.70;;;2.23;;
72087;SDS011;59961;50.232;8.616;2022-12-07T13:33:18;4.03;;;1.85;;
72087;SDS011;59961;50.232;8.616;2022-12-07T13:35:44;5.43;;;2.10;;
72087;SDS011;59961;50.232;8.616;2022-12-07T13:38:22;6.87;;;2.17;;
72087;SDS011;59961;50.232;8.616;2022-12-07T13:43:41;4.13;;;1.80;;
72087;SDS011;59961;50.232;8.616;2022-12-07T13:46:07;5.07;;;2.13;;
72087;SDS011;59961;50.232;8.616;2022-12-07T13:48:34;5.95;;;1.95;;
72087;SDS011;59961;50.232;8.616;2022-12-07T13:51:01;7.47;;;2.05;;
72087;SDS011;59961;50.232;8.616;2022-12-07T13:53:26;7.35;;;2.22;;
72087;SDS011;59961;50.232;8.616;2022-12-07T13:55:55;5.57;;;1.80;;
72087;SDS011;59961;50.232;8.616;2022-12-07T13:58:21;4.75;;;1.65;;
72087;SDS011;59961;50.232;8.616;2022-12-07T14:00:46;4.73;;;1.93;;
72087;SDS011;59961;50.232;8.616;2022-12-07T14:05:37;4.82;;;1.70;;
72087;SDS011;59961;50.232;8.616;2022-12-07T14:10:36;5.05;;;1.85;;
72087;SDS011;59961;50.232;8.616;2022-12-07T14:13:02;4.22;;;1.65;;
72087;SDS011;59961;50.232;8.616;2022-12-07T14:17:53;3.10;;;1.55;;
72087;SDS011;59961;50.232;8.616;2022-12-07T14:20:32;5.27;;;1.50;;
72087;SDS011;59961;50.232;8.616;2022-12-07T14:22:58;5.82;;;1.70;;
72087;SDS011;59961;50.232;8.616;2022-12-07T14:25:24;6.30;;;1.70;;
72087;SDS011;59961;50.232;8.616;2022-12-07T14:27:50;5.30;;;1.55;;
72087;SDS011;59961;50.232;8.616;2022-12-07T14:30:16;6.80;;;1.45;;
72087;SDS011;59961;50.232;8.616;2022-12-07T14:32:42;3.63;;;1.57;;
72087;SDS011;59961;50.232;8.616;2022-12-07T14:35:13;4.05;;;1.10;;
72087;SDS011;59961;50.232;8.616;2022-12-07T14:37:39;3.20;;;1.30;;
72087;SDS011;59961;50.232;8.616;2022-12-07T14:40:05;4.32;;;1.50;;
72087;SDS011;59961;50.232;8.616;2022-12-07T14:42:31;5.57;;;1.60;;
72087;SDS011;59961;50.232;8.616;2022-12-07T14:44:56;3.25;;;1.40;;
72087;SDS011;59961;50.232;8.616;2022-12-07T14:47:22;3.87;;;1.53;;
72087;SDS011;59961;50.232;8.616;2022-12-07T14:49:48;3.05;;;1.45;;
72087;SDS011;59961;50.232;8.616;2022-12-07T14:52:14;4.17;;;1.70;;
72087;SDS011;59961;50.232;8.616;2022-12-07T14:54:40;4.68;;;1.70;;
72087;SDS011;59961;50.232;8.616;2022-12-07T14:57:07;6.07;;;1.60;;
72087;SDS011;59961;50.232;8.616;2022-12-07T14:59:33;5.38;;;1.40;;
72087;SDS011;59961;50.232;8.616;2022-12-07T15:01:58;2.55;;;1.15;;
72087;SDS011;59961;50.232;8.616;2022-12-07T15:04:23;4.60;;;1.33;;
72087;SDS011;59961;50.232;8.616;2022-12-07T15:06:58;3.67;;;1.87;;
72087;SDS011;59961;50.232;8.616;2022-12-07T15:09:24;3.83;;;1.63;;
72087;SDS011;59961;50.232;8.616;2022-12-07T15:11:49;5.07;;;1.70;;
72087;SDS011;59961;50.232;8.616;2022-12-07T15:14:14;9.67;;;1.70;;
72087;SDS011;59961;50.232;8.616;2022-12-07T15:16:40;4.90;;;1.70;;
72087;SDS011;59961;50.232;8.616;2022-12-07T15:19:09;6.20;;;1.90;;
72087;SDS011;59961;50.232;8.616;2022-12-07T15:21:35;3.60;;;1.33;;
72087;SDS011;59961;50.232;8.616;2022-12-07T15:24:00;4.80;;;1.73;;
72087;SDS011;59961;50.232;8.616;2022-12-07T15:26:25;4.40;;;1.80;;
72087;SDS011;59961;50.232;8.616;2022-12-07T15:28:52;5.23;;;1.80;;
72087;SDS011;59961;50.232;8.616;2022-12-07T15:31:17;6.18;;;1.80;;
72087;SDS011;59961;50.232;8.616;2022-12-07T15:33:42;4.10;;;1.23;;
72087;SDS011;59961;50.232;8.616;2022-12-07T15:36:08;4.33;;;1.40;;
72087;SDS011;59961;50.232;8.616;2022-12-07T15:38:37;5.35;;;1.90;;
72087;SDS011;59961;50.232;8.616;2022-12-07T15:41:02;3.78;;;1.38;;
72087;SDS011;59961;50.232;8.616;2022-12-07T15:43:27;4.97;;;1.40;;
72087;SDS011;59961;50.232;8.616;2022-12-07T15:46:11;6.40;;;1.58;;
72087;SDS011;59961;50.232;8.616;2022-12-07T15:48:36;4.47;;;1.60;;
72087;SDS011;59961;50.232;8.616;2022-12-07T15:51:06;4.18;;;1.50;;
72087;SDS011;59961;50.232;8.616;2022-12-07T15:53:31;5.10;;;1.60;;
72087;SDS011;59961;50.232;8.616;2022-12-07T15:55:56;4.60;;;2.00;;
72087;SDS011;59961;50.232;8.616;2022-12-07T15:58:21;6.80;;;1.77;;
72087;SDS011;59961;50.232;8.616;2022-12-07T16:00:47;5.33;;;1.77;;
72087;SDS011;59961;50.232;8.616;2022-12-07T16:03:13;3.15;;;1.42;;
72087;SDS011;59961;50.232;8.616;2022-12-07T16:05:38;6.17;;;2.00;;
72087;SDS011;59961;50.232;8.616;2022-12-07T16:08:03;3.77;;;1.90;;
72087;SDS011;59961;50.232;8.616;2022-12-07T16:10:28;5.43;;;1.80;;
72087;SDS011;59961;50.232;8.616;2022-12-07T16:12:53;5.03;;;2.15;;
72087;SDS011;59961;50.232;8.616;2022-12-07T16:15:18;4.13;;;1.52;;
72087;SDS011;59961;50.232;8.616;2022-12-07T16:17:44;3.47;;;1.37;;
72087;SDS011;59961;50.232;8.616;2022-12-07T16:20:09;8.45;;;2.80;;
72087;SDS011;59961;50.232;8.616;2022-12-07T16:22:34;7.43;;;1.90;;
72087;SDS011;59961;50.232;8.616;2022-12-07T16:24:59;4.77;;;1.83;;
72087;SDS011;59961;50.232;8.616;2022-12-07T16:27:24;5.60;;;2.50;;
72087;SDS011;59961;50.232;8.616;2022-12-07T16:29:50;6.57;;;2.57;;
72087;SDS011;59961;50.232;8.616;2022-12-07T16:32:15;6.10;;;1.70;;
72087;SDS011;59961;50.232;8.616;2022-12-07T16:34:40;4.38;;;1.90;;
72087;SDS011;59961;50.232;8.616;2022-12-07T16:37:05;8.57;;;3.58;;
72087;SDS011;59961;50.232;8.616;2022-12-07T16:39:30;7.95;;;2.22;;
72087;SDS011;59961;50.232;8.616;2022-12-07T16:41:56;6.30;;;2.23;;
72087;SDS011;59961;50.232;8.616;2022-12-07T16:44:21;7.43;;;1.85;;
72087;SDS011;59961;50.232;8.616;2022-12-07T16:46:46;8.60;;;2.77;;
72087;SDS011;59961;50.232;8.616;2022-12-07T16:49:12;4.97;;;2.40;;
72087;SDS011;59961;50.232;8.616;2022-12-07T16:51:38;8.00;;;2.47;;